createdAt,value
2022-10-11T00:00:13.904Z,3.08
2022-10-11T00:02:44.125Z,1.25
2022-10-11T00:07:44.271Z,2.67
2022-10-11T00:10:13.998Z,1.15
2022-10-11T00:15:20.137Z,1.02
2022-10-11T00:17:50.975Z,1.45
2022-10-11T00:20:21.000Z,0.88
2022-10-11T00:22:50.917Z,0.98
2022-10-11T00:25:21.238Z,1.02
2022-10-11T00:27:51.255Z,3.42
2022-10-11T00:30:21.096Z,0.90
2022-10-11T00:32:51.634Z,0.98
2022-10-11T00:35:21.341Z,0.85
2022-10-11T00:40:22.081Z,1.38
2022-10-11T00:42:52.212Z,16.92
2022-10-11T00:48:14.148Z,1.55
2022-10-11T00:50:44.330Z,1.95
2022-10-11T00:53:14.411Z,1.33
2022-10-11T00:55:52.251Z,1.70
2022-10-11T00:58:25.108Z,1.83
2022-10-11T01:00:55.609Z,1.40
2022-10-11T01:03:28.463Z,1.80
2022-10-11T01:05:58.433Z,1.77
2022-10-11T01:10:58.851Z,1.55
2022-10-11T01:13:49.294Z,1.80
2022-10-11T01:16:31.512Z,1.85
2022-10-11T01:21:58.486Z,1.40
2022-10-11T01:25:06.626Z,1.60
2022-10-11T01:27:57.292Z,1.92
2022-10-11T01:30:30.621Z,1.42
2022-10-11T01:33:26.218Z,2.85
2022-10-11T01:36:05.316Z,1.90
2022-10-11T01:38:44.454Z,2.15
2022-10-11T01:41:25.827Z,1.50
2022-10-11T01:44:00.413Z,1.83
2022-10-11T01:46:32.120Z,1.70
2022-10-11T01:49:04.017Z,5.13
2022-10-11T01:51:47.341Z,4.85
2022-10-11T01:54:39.395Z,1.45
2022-10-11T01:57:34.729Z,1.88
2022-10-11T02:00:20.499Z,1.80
2022-10-11T02:03:14.573Z,2.50
2022-10-11T02:06:12.473Z,1.70
2022-10-11T02:08:51.226Z,1.92
2022-10-11T02:11:36.196Z,1.10
2022-10-11T02:14:26.303Z,1.30
2022-10-11T02:17:08.626Z,1.00
2022-10-11T02:22:20.398Z,0.80
2022-10-11T02:24:54.421Z,1.00
2022-10-11T02:27:28.118Z,1.10
2022-10-11T02:30:01.141Z,1.10
2022-10-11T02:32:33.673Z,0.77
2022-10-11T02:35:05.082Z,0.70
2022-10-11T02:37:46.637Z,0.70
2022-10-11T02:40:32.632Z,0.70
2022-10-11T02:43:18.679Z,0.60
2022-10-11T02:46:03.008Z,0.70
2022-10-11T02:48:36.703Z,0.90
2022-10-11T02:51:07.062Z,1.08
2022-10-11T02:53:36.730Z,1.33
2022-10-11T02:58:36.593Z,1.25
2022-10-11T03:01:06.908Z,1.10
2022-10-11T03:03:36.576Z,1.08
2022-10-11T03:08:36.203Z,0.50
2022-10-11T03:11:05.927Z,0.50
2022-10-11T03:16:05.060Z,0.22
2022-10-11T03:18:34.721Z,0.25
2022-10-11T03:23:34.020Z,0.20
2022-10-11T03:26:04.216Z,0.30
2022-10-11T03:28:35.152Z,0.00
2022-10-11T03:31:06.216Z,0.10
2022-10-11T03:33:36.697Z,0.00
2022-10-11T03:36:07.374Z,0.15
2022-10-11T03:38:37.392Z,0.10
2022-10-11T03:43:41.099Z,0.30
2022-10-11T03:46:11.463Z,0.20
2022-10-11T03:48:41.231Z,0.40
2022-10-11T03:53:40.767Z,0.10
2022-10-11T03:56:11.286Z,0.20
2022-10-11T03:58:42.677Z,0.20
2022-10-11T04:01:13.062Z,0.22
2022-10-11T04:03:42.887Z,0.00
2022-10-11T04:06:12.625Z,0.22
2022-10-11T04:11:11.439Z,0.10
2022-10-11T04:16:10.223Z,0.00
2022-10-11T04:21:09.104Z,0.10
2022-10-11T04:26:10.423Z,0.00
2022-10-11T04:28:40.582Z,0.10
2022-10-11T04:31:10.275Z,0.10
2022-10-11T04:36:09.584Z,0.10
2022-10-11T04:38:39.273Z,0.10
2022-10-11T04:43:39.606Z,0.20
2022-10-11T04:46:10.969Z,0.20
2022-10-11T04:48:41.527Z,0.10
2022-10-11T04:53:40.850Z,0.05
2022-10-11T04:56:16.105Z,0.10
2022-10-11T04:58:48.995Z,0.20
2022-10-11T05:01:19.059Z,0.10
2022-10-11T05:06:19.005Z,0.20
2022-10-11T05:08:48.739Z,0.00
2022-10-11T05:11:19.261Z,0.20
2022-10-11T05:13:49.420Z,0.20
2022-10-11T05:16:19.666Z,0.20
2022-10-11T05:18:49.380Z,0.20
2022-10-11T05:23:50.166Z,0.00
2022-10-11T05:26:21.671Z,0.20
2022-10-11T05:28:52.332Z,0.25
2022-10-11T05:31:22.314Z,0.20
2022-10-11T05:33:52.439Z,0.20
2022-10-11T05:36:22.166Z,0.20
2022-10-11T05:41:20.927Z,0.20
2022-10-11T05:46:19.924Z,0.20
2022-10-11T05:51:19.328Z,0.10
2022-10-11T05:56:24.414Z,0.15
2022-10-11T05:58:58.710Z,0.20
2022-10-11T06:01:31.414Z,0.25
2022-10-11T06:04:02.029Z,0.30
2022-10-11T06:06:32.350Z,0.20
2022-10-11T06:09:02.085Z,0.28
2022-10-11T06:11:31.849Z,0.20
2022-10-11T06:14:01.723Z,0.22
2022-10-11T06:16:31.593Z,0.13
2022-10-11T06:19:01.313Z,0.20
2022-10-11T06:21:31.475Z,0.10
2022-10-11T06:24:02.892Z,0.20
2022-10-11T06:26:33.541Z,0.30
2022-10-11T06:29:03.387Z,0.10
2022-10-11T06:31:33.364Z,0.22
2022-10-11T06:34:03.206Z,0.05
2022-10-11T06:36:32.943Z,0.45
2022-10-11T06:39:02.687Z,0.30
2022-10-11T06:41:32.882Z,1.48
2022-10-11T06:44:02.728Z,0.80
2022-10-11T06:46:35.276Z,1.10
2022-10-11T06:49:05.617Z,0.82
2022-10-11T06:51:36.886Z,0.68
2022-10-11T06:54:07.007Z,0.73
2022-10-11T06:56:37.014Z,0.95
2022-10-11T06:59:06.922Z,0.98
2022-10-11T07:01:36.670Z,1.20
2022-10-11T07:04:06.482Z,0.20
2022-10-11T07:06:40.431Z,0.40
2022-10-11T07:09:11.963Z,0.45
2022-10-11T07:11:42.731Z,0.60
2022-10-11T07:14:12.447Z,0.43
2022-10-11T07:16:42.253Z,0.60
2022-10-11T07:19:12.328Z,0.32
2022-10-11T07:21:42.020Z,0.30
2022-10-11T07:24:11.745Z,0.40
2022-10-11T07:26:41.940Z,0.70
2022-10-11T07:29:13.264Z,0.40
2022-10-11T07:31:44.743Z,0.60
2022-10-11T07:34:15.875Z,0.55
2022-10-11T07:36:45.902Z,0.40
2022-10-11T07:39:15.607Z,0.40
2022-10-11T07:41:46.129Z,0.75
2022-10-11T07:44:16.319Z,0.70
2022-10-11T07:46:46.551Z,0.70
2022-10-11T07:49:16.457Z,0.95
2022-10-11T07:54:15.581Z,0.75
2022-10-11T07:56:45.297Z,0.88
2022-10-11T07:59:15.227Z,1.00
2022-10-11T08:01:44.927Z,1.20
2022-10-11T08:04:14.624Z,1.42
2022-10-11T08:09:13.937Z,1.40
2022-10-11T08:11:43.700Z,1.42
2022-10-11T08:14:14.019Z,1.70
2022-10-11T08:16:45.055Z,1.10
2022-10-11T08:19:15.073Z,1.33
2022-10-11T08:21:44.792Z,1.55
2022-10-11T08:24:18.020Z,2.05
2022-10-11T08:26:48.763Z,1.95
2022-10-11T08:29:19.924Z,3.00
2022-10-11T08:31:50.279Z,4.22
2022-10-11T08:34:20.000Z,4.35
2022-10-11T08:39:19.848Z,4.15
2022-10-11T08:41:55.584Z,4.30
2022-10-11T08:47:38.264Z,4.78
2022-10-11T08:50:16.644Z,5.20
2022-10-11T08:53:04.679Z,4.22
2022-10-11T08:55:49.734Z,4.72
2022-10-11T08:58:24.290Z,4.43
2022-10-11T09:00:56.821Z,4.07
2022-10-11T09:03:45.547Z,3.83
2022-10-11T09:06:33.431Z,3.60
2022-10-11T09:09:24.345Z,3.08
2022-10-11T09:12:12.195Z,3.50
2022-10-11T09:14:54.081Z,3.42
2022-10-11T09:17:50.584Z,3.72
2022-10-11T09:20:53.232Z,4.05
2022-10-11T09:23:41.209Z,4.70
2022-10-11T09:26:41.397Z,6.03
2022-10-11T09:29:46.472Z,5.28
2022-10-11T09:32:23.346Z,4.55
2022-10-11T09:35:17.500Z,5.25
2022-10-11T09:38:16.021Z,6.20
2022-10-11T09:41:06.932Z,6.20
2022-10-11T09:43:37.075Z,7.18
2022-10-11T09:46:21.681Z,7.50
2022-10-11T09:48:53.304Z,7.65
2022-10-11T09:51:25.582Z,7.20
2022-10-11T09:54:03.893Z,8.82
2022-10-11T09:56:36.098Z,8.77
2022-10-11T09:59:36.403Z,9.30
2022-10-11T10:02:16.885Z,11.00
2022-10-11T10:04:58.766Z,10.93
2022-10-11T10:09:59.739Z,11.20
2022-10-11T10:12:32.012Z,10.88
2022-10-11T10:15:20.986Z,11.88
2022-10-11T10:17:54.993Z,10.85
2022-10-11T10:20:52.919Z,9.27
2022-10-11T10:23:27.521Z,8.82
2022-10-11T10:26:18.351Z,8.57
2022-10-11T10:29:06.980Z,8.95
2022-10-11T10:35:11.260Z,8.82
2022-10-11T10:37:51.090Z,8.20
2022-10-11T10:40:39.181Z,9.40
2022-10-11T10:43:23.118Z,7.88
2022-10-11T10:46:25.817Z,8.85
2022-10-11T10:49:41.215Z,8.40
2022-10-11T10:52:27.324Z,8.52
2022-10-11T10:55:35.849Z,8.60
2022-10-11T10:58:15.143Z,7.80
2022-10-11T11:01:13.951Z,8.52
2022-10-11T11:03:49.511Z,8.90
2022-10-11T11:06:45.508Z,7.72
2022-10-11T11:09:36.702Z,9.20
2022-10-11T11:12:16.911Z,8.80
2022-10-11T11:14:55.800Z,8.80
2022-10-11T11:17:41.002Z,7.93
2022-10-11T11:20:34.909Z,8.35
2022-10-11T11:23:28.402Z,8.63
2022-10-11T11:26:23.209Z,8.15
2022-10-11T11:29:23.875Z,8.32
2022-10-11T11:32:11.909Z,9.00
2022-10-11T11:34:53.687Z,7.93
2022-10-11T11:42:46.113Z,11.45
2022-10-11T11:45:23.286Z,8.57
2022-10-11T11:48:04.704Z,8.23
2022-10-11T11:50:45.008Z,8.80
2022-10-11T11:53:25.866Z,9.70
2022-10-11T11:56:18.783Z,8.68
2022-10-11T11:59:11.937Z,9.70
2022-10-11T12:01:49.276Z,8.70
2022-10-11T12:04:34.092Z,8.75
2022-10-11T12:07:17.386Z,10.25
2022-10-11T12:09:54.162Z,9.65
2022-10-11T12:12:35.226Z,9.20
2022-10-11T12:15:11.265Z,10.43
2022-10-11T12:17:58.887Z,9.52
2022-10-11T12:20:30.354Z,10.35
2022-10-11T12:23:01.812Z,9.25
2022-10-11T12:25:35.183Z,16.67
2022-10-11T12:28:38.852Z,9.68
2022-10-11T12:31:27.435Z,8.52
2022-10-11T12:34:37.231Z,19.15
2022-10-11T12:37:24.982Z,10.05
2022-10-11T12:39:59.347Z,8.45
2022-10-11T12:42:33.531Z,7.95
2022-10-11T12:45:16.651Z,10.23
2022-10-11T12:48:10.754Z,9.52
2022-10-11T12:51:03.082Z,7.47
2022-10-11T12:54:21.604Z,8.73
2022-10-11T12:56:51.194Z,6.97
2022-10-11T12:59:25.668Z,6.50
2022-10-11T13:01:58.095Z,6.75
2022-10-11T13:04:31.931Z,6.15
2022-10-11T13:07:08.788Z,5.68
2022-10-11T13:09:48.128Z,5.72
2022-10-11T13:12:27.321Z,5.97
2022-10-11T13:15:09.471Z,5.47
2022-10-11T13:17:42.673Z,5.15
2022-10-11T13:20:21.748Z,16.52
2022-10-11T13:22:55.200Z,5.47
2022-10-11T13:25:31.242Z,4.88
2022-10-11T13:30:33.764Z,5.35
2022-10-11T13:33:22.773Z,5.93
2022-10-11T13:35:54.101Z,4.90
2022-10-11T13:38:36.992Z,4.97
2022-10-11T13:41:11.381Z,4.47
2022-10-11T13:43:41.890Z,3.53
2022-10-11T13:46:20.075Z,4.72
2022-10-11T13:49:00.311Z,3.75
2022-10-11T13:51:33.542Z,5.40
2022-10-11T13:54:13.832Z,7.75
2022-10-11T13:56:52.704Z,4.70
2022-10-11T13:59:25.172Z,4.07
2022-10-11T14:02:05.468Z,4.32
2022-10-11T14:04:42.907Z,3.50
2022-10-11T14:07:33.100Z,3.83
2022-10-11T14:10:03.563Z,4.05
2022-10-11T14:12:45.524Z,3.63
2022-10-11T14:15:36.589Z,3.42
2022-10-11T14:18:42.684Z,3.33
2022-10-11T14:24:03.302Z,4.00
2022-10-11T14:26:37.264Z,4.32
2022-10-11T14:29:19.756Z,3.10
2022-10-11T14:31:50.827Z,3.80
2022-10-11T14:34:23.562Z,11.50
2022-10-11T14:36:54.741Z,6.00
2022-10-11T14:39:26.511Z,4.40
2022-10-11T14:41:56.689Z,5.97
2022-10-11T14:44:26.664Z,5.15
2022-10-11T14:46:56.555Z,4.88
2022-10-11T14:49:29.181Z,4.63
2022-10-11T14:52:00.980Z,4.53
2022-10-11T14:54:31.922Z,4.50
2022-10-11T14:57:05.068Z,4.22
2022-10-11T14:59:38.160Z,4.82
2022-10-11T15:02:10.238Z,4.63
2022-10-11T15:04:40.127Z,4.60
2022-10-11T15:07:09.830Z,5.40
2022-10-11T15:09:39.507Z,5.32
2022-10-11T15:12:10.629Z,5.28
2022-10-11T15:14:40.710Z,6.95
2022-10-11T15:17:13.936Z,6.38
2022-10-11T15:19:44.149Z,5.95
2022-10-11T15:22:13.821Z,5.05
2022-10-11T15:24:44.523Z,5.05
2022-10-11T15:27:18.308Z,5.18
2022-10-11T15:29:48.246Z,4.93
2022-10-11T15:32:17.964Z,4.70
2022-10-11T15:34:47.658Z,5.93
2022-10-11T15:37:17.335Z,3.83
2022-10-11T15:39:47.135Z,3.72
2022-10-11T15:42:16.833Z,4.03
2022-10-11T15:44:46.543Z,3.65
2022-10-11T15:47:16.275Z,2.85
2022-10-11T15:49:45.994Z,3.30
2022-10-11T15:52:16.094Z,3.35
2022-10-11T15:54:45.749Z,2.92
2022-10-11T15:57:15.582Z,2.85
2022-10-11T15:59:45.625Z,2.88
2022-10-11T16:02:16.513Z,2.83
2022-10-11T16:04:46.472Z,2.88
2022-10-11T16:07:16.162Z,2.65
2022-10-11T16:09:45.855Z,2.72
2022-10-11T16:12:15.526Z,2.58
2022-10-11T16:14:47.336Z,2.50
2022-10-11T16:17:17.320Z,3.40
2022-10-11T16:19:47.020Z,2.97
2022-10-11T16:22:17.280Z,2.20
2022-10-11T16:24:47.036Z,2.35
2022-10-11T16:27:19.000Z,2.80
2022-10-11T16:29:49.129Z,3.15
2022-10-11T16:32:18.903Z,4.95
2022-10-11T16:34:48.700Z,4.10
2022-10-11T16:37:18.742Z,4.22
2022-10-11T16:39:48.575Z,5.38
2022-10-11T16:42:18.385Z,4.53
2022-10-11T16:44:48.092Z,4.90
2022-10-11T16:47:18.096Z,4.38
2022-10-11T16:49:47.949Z,4.45
2022-10-11T16:52:17.672Z,5.35
2022-10-11T16:54:48.913Z,4.97
2022-10-11T16:57:20.933Z,4.70
2022-10-11T16:59:51.480Z,5.30
2022-10-11T17:02:31.303Z,3.78
2022-10-11T17:05:02.377Z,4.43
2022-10-11T17:07:32.955Z,4.13
2022-10-11T17:10:03.030Z,5.15
2022-10-11T17:12:33.615Z,5.57
2022-10-11T17:15:03.324Z,6.32
2022-10-11T17:17:33.075Z,6.03
2022-10-11T17:20:03.508Z,6.78
2022-10-11T17:22:33.252Z,11.07
2022-10-11T17:25:04.443Z,7.35
2022-10-11T17:27:34.437Z,7.60
2022-10-11T17:30:04.210Z,7.05
2022-10-11T17:32:33.941Z,8.10
2022-10-11T17:35:04.773Z,9.82
2022-10-11T17:37:35.282Z,9.80
2022-10-11T17:40:05.408Z,8.88
2022-10-11T17:42:35.179Z,11.82
2022-10-11T17:45:05.026Z,11.40
2022-10-11T17:47:34.766Z,10.43
2022-10-11T17:50:04.458Z,12.10
2022-10-11T17:52:34.254Z,12.57
2022-10-11T17:55:03.955Z,13.07
2022-10-11T17:57:33.638Z,14.07
2022-10-11T18:00:05.245Z,15.07
2022-10-11T18:02:35.364Z,17.95
2022-10-11T18:05:05.484Z,16.73
2022-10-11T18:07:35.486Z,16.42
2022-10-11T18:10:05.331Z,17.70
2022-10-11T18:12:35.156Z,17.80
2022-10-11T18:15:05.090Z,16.92
2022-10-11T18:17:39.949Z,14.38
2022-10-11T18:20:10.620Z,14.18
2022-10-11T18:22:40.362Z,16.90
2022-10-11T18:25:11.346Z,15.50
2022-10-11T18:27:41.576Z,13.65
2022-10-11T18:30:11.773Z,12.77
2022-10-11T18:32:41.560Z,14.43
2022-10-11T18:35:11.953Z,15.18
2022-10-11T18:37:41.741Z,15.13
2022-10-11T18:40:11.875Z,16.50
2022-10-11T18:42:41.565Z,14.63
2022-10-11T18:45:11.911Z,12.13
2022-10-11T18:47:42.432Z,12.77
2022-10-11T18:50:12.795Z,13.02
2022-10-11T18:52:44.583Z,13.35
2022-10-11T18:55:14.943Z,12.27
2022-10-11T18:57:44.711Z,16.15
2022-10-11T19:00:37.755Z,12.40
2022-10-11T19:03:05.856Z,13.68
2022-10-11T19:05:35.532Z,11.00
2022-10-11T19:08:05.248Z,11.32
2022-10-11T19:10:36.012Z,13.70
2022-10-11T19:13:06.303Z,14.35
2022-10-11T19:15:37.384Z,13.48
2022-10-11T19:18:07.395Z,13.40
2022-10-11T19:20:37.698Z,14.95
2022-10-11T19:23:07.388Z,13.82
2022-10-11T19:25:38.069Z,13.70
2022-10-11T19:28:10.382Z,15.80
2022-10-11T19:30:43.481Z,13.73
2022-10-11T19:33:13.200Z,15.07
2022-10-11T19:35:44.532Z,15.57
2022-10-11T19:38:14.588Z,17.08
2022-10-11T19:40:44.659Z,15.93
2022-10-11T19:43:14.377Z,14.45
2022-10-11T19:45:45.145Z,15.10
2022-10-11T19:48:15.558Z,16.23
2022-10-11T19:50:45.277Z,16.08
2022-10-11T19:53:14.957Z,17.90
2022-10-11T19:55:46.527Z,16.10
2022-10-11T19:58:16.811Z,17.25
2022-10-11T20:00:46.532Z,17.20
2022-10-11T20:03:17.106Z,17.73
2022-10-11T20:05:48.444Z,16.05
2022-10-11T20:08:18.572Z,15.55
2022-10-11T20:10:48.699Z,22.75
2022-10-11T20:13:18.385Z,17.98
2022-10-11T20:15:48.578Z,19.13
2022-10-11T20:18:19.295Z,26.13
2022-10-11T20:20:57.477Z,24.45
2022-10-11T20:23:31.321Z,21.40
2022-10-11T20:26:08.899Z,21.70
2022-10-11T20:28:41.269Z,24.00
2022-10-11T20:31:15.590Z,18.52
2022-10-11T20:33:47.013Z,16.75
2022-10-11T20:36:21.729Z,15.77
2022-10-11T20:38:53.612Z,16.08
2022-10-11T20:41:35.630Z,15.13
2022-10-11T20:44:14.102Z,14.57
2022-10-11T20:46:44.478Z,15.07
2022-10-11T20:49:14.562Z,13.75
2022-10-11T20:51:44.920Z,12.55
2022-10-11T20:54:15.055Z,12.75
2022-10-11T20:56:44.841Z,11.93
2022-10-11T20:59:15.183Z,10.68
2022-10-11T21:01:45.411Z,10.57
2022-10-11T21:04:20.823Z,12.38
2022-10-11T21:06:51.172Z,11.50
2022-10-11T21:09:20.974Z,12.02
2022-10-11T21:11:51.562Z,13.02
2022-10-11T21:14:21.312Z,11.95
2022-10-11T21:16:51.196Z,12.82
2022-10-11T21:19:20.986Z,11.63
2022-10-11T21:21:53.685Z,11.77
2022-10-11T21:24:24.133Z,13.60
2022-10-11T21:26:58.201Z,13.85
2022-10-11T21:29:30.262Z,13.07
2022-10-11T21:31:59.956Z,14.73
2022-10-11T21:34:29.625Z,14.90
2022-10-11T21:36:59.470Z,14.88
2022-10-11T21:39:29.141Z,13.63
2022-10-11T21:41:58.944Z,12.45
2022-10-11T21:44:28.966Z,12.95
2022-10-11T21:47:07.389Z,13.48
2022-10-11T21:49:38.845Z,11.73
2022-10-11T21:52:08.800Z,11.75
2022-10-11T21:54:38.548Z,10.57
2022-10-11T21:57:08.700Z,9.50
2022-10-11T21:59:38.530Z,11.18
2022-10-11T22:02:08.531Z,10.50
2022-10-11T22:04:38.272Z,10.88
2022-10-11T22:07:07.938Z,11.73
2022-10-11T22:09:37.731Z,9.57
2022-10-11T22:12:07.673Z,10.50
2022-10-11T22:14:37.379Z,12.32
2022-10-11T22:17:07.081Z,13.20
2022-10-11T22:19:36.750Z,14.43
2022-10-11T22:22:07.091Z,12.63
2022-10-11T22:24:36.816Z,13.05
2022-10-11T22:27:06.519Z,12.45
2022-10-11T22:29:36.229Z,13.90
2022-10-11T22:32:06.047Z,14.10
2022-10-11T22:34:35.831Z,12.23
2022-10-11T22:37:05.638Z,12.80
2022-10-11T22:39:35.317Z,11.70
2022-10-11T22:42:05.163Z,10.30
2022-10-11T22:44:35.343Z,11.75
2022-10-11T22:47:05.211Z,13.43
2022-10-11T22:49:35.259Z,10.32
2022-10-11T22:52:05.025Z,10.18
2022-10-11T22:54:34.750Z,15.18
2022-10-11T22:57:04.657Z,14.27
2022-10-11T22:59:34.350Z,13.63
2022-10-11T23:02:04.137Z,12.25
2022-10-11T23:04:33.854Z,11.93
2022-10-11T23:07:05.122Z,12.32
2022-10-11T23:09:35.138Z,11.98
2022-10-11T23:12:05.173Z,11.60
2022-10-11T23:14:34.852Z,12.98
2022-10-11T23:17:04.547Z,12.68
2022-10-11T23:19:34.466Z,12.02
2022-10-11T23:22:04.916Z,15.13
2022-10-11T23:24:34.792Z,12.93
2022-10-11T23:27:04.543Z,15.43
2022-10-11T23:29:35.171Z,13.32
2022-10-11T23:32:04.961Z,14.15
2022-10-11T23:34:34.723Z,14.75
2022-10-11T23:37:05.256Z,15.40
2022-10-11T23:39:35.111Z,15.98
2022-10-11T23:42:05.087Z,13.52
2022-10-11T23:44:34.839Z,12.57
2022-10-11T23:47:04.648Z,15.30
2022-10-11T23:49:34.529Z,14.27
2022-10-11T23:52:04.641Z,10.88
2022-10-11T23:54:34.389Z,11.52
2022-10-11T23:57:04.153Z,13.85
2022-10-11T23:59:34.023Z,12.23
